createdAt,value
2022-11-25T00:00:33.762Z,86.30
2022-11-25T00:08:41.988Z,85.90
2022-11-25T00:16:48.782Z,86.20
2022-11-25T00:24:56.963Z,86.20
2022-11-25T00:33:03.894Z,85.90
2022-11-25T00:41:36.102Z,85.50
2022-11-25T00:49:42.290Z,85.50
2022-11-25T00:57:50.281Z,85.90
2022-11-25T01:05:55.664Z,85.80
2022-11-25T01:14:03.911Z,86.10
2022-11-25T01:22:09.622Z,86.30
2022-11-25T01:30:20.497Z,86.20
2022-11-25T01:38:25.838Z,86.00
2022-11-25T01:46:45.994Z,85.70
2022-11-25T01:54:55.980Z,86.20
2022-11-25T02:03:04.393Z,85.90
2022-11-25T02:11:09.788Z,85.90
2022-11-25T02:19:26.413Z,86.20
2022-11-25T02:27:34.473Z,86.30
2022-11-25T02:35:41.723Z,86.60
2022-11-25T02:43:50.769Z,86.60
2022-11-25T02:51:58.055Z,86.70
2022-11-25T03:00:10.889Z,86.90
2022-11-25T03:08:18.363Z,87.30
2022-11-25T03:16:26.917Z,87.00
2022-11-25T03:24:32.611Z,87.40
2022-11-25T03:32:41.038Z,87.90
2022-11-25T03:40:47.449Z,88.20
2022-11-25T03:48:55.537Z,88.30
2022-11-25T03:57:02.032Z,88.80
2022-11-25T04:05:11.970Z,89.60
2022-11-25T04:13:17.508Z,89.70
2022-11-25T04:21:26.772Z,89.40
2022-11-25T04:29:32.320Z,89.40
2022-11-25T04:37:43.915Z,89.20
2022-11-25T04:46:13.150Z,89.90
2022-11-25T04:54:20.289Z,89.80
2022-11-25T05:02:29.126Z,90.10
2022-11-25T05:10:52.435Z,90.20
2022-11-25T05:18:59.377Z,90.20
2022-11-25T05:27:08.240Z,90.40
2022-11-25T05:35:13.713Z,90.80
2022-11-25T05:43:22.475Z,90.70
2022-11-25T05:51:28.421Z,90.70
2022-11-25T05:59:37.364Z,91.10
2022-11-25T06:07:56.813Z,91.10
2022-11-25T06:16:10.539Z,91.10
2022-11-25T06:24:16.442Z,90.70
2022-11-25T06:32:38.524Z,90.20
2022-11-25T06:41:00.267Z,90.10
2022-11-25T06:49:08.436Z,90.00
2022-11-25T06:57:15.080Z,89.40
2022-11-25T07:05:23.023Z,88.00
2022-11-25T07:13:28.348Z,87.50
2022-11-25T07:21:37.074Z,87.20
2022-11-25T07:38:10.362Z,86.10
2022-11-25T07:46:22.041Z,85.00
2022-11-25T07:54:34.142Z,84.40
2022-11-25T08:02:39.553Z,83.60
2022-11-25T08:10:47.591Z,82.50
2022-11-25T08:18:53.899Z,82.10
2022-11-25T08:27:02.098Z,82.70
2022-11-25T08:35:11.369Z,82.40
2022-11-25T08:43:26.407Z,81.90
2022-11-25T08:51:37.243Z,81.20
2022-11-25T08:59:45.293Z,81.20
2022-11-25T09:07:50.650Z,81.00
2022-11-25T09:15:59.686Z,81.00
2022-11-25T09:24:06.405Z,81.60
2022-11-25T09:32:14.302Z,81.60
2022-11-25T09:40:22.968Z,81.10
2022-11-25T09:48:46.692Z,80.10
2022-11-25T09:56:58.562Z,80.70
2022-11-25T10:05:12.582Z,80.10
2022-11-25T10:13:22.824Z,80.20
2022-11-25T10:21:31.715Z,81.30
2022-11-25T10:29:41.502Z,80.20
2022-11-25T10:37:55.222Z,80.60
2022-11-25T10:46:10.808Z,78.90
2022-11-25T10:54:29.826Z,80.30
2022-11-25T11:02:48.252Z,80.10
2022-11-25T11:11:18.416Z,79.60
2022-11-25T11:19:29.323Z,78.40
2022-11-25T12:02:40.248Z,77.80
2022-11-25T12:10:51.353Z,78.20
2022-11-25T12:19:05.327Z,78.20
2022-11-25T12:27:14.487Z,78.20
2022-11-25T12:35:27.770Z,78.50
2022-11-25T12:43:42.503Z,78.90
2022-11-25T12:52:11.387Z,78.40
2022-11-25T13:09:06.734Z,79.50
2022-11-25T13:17:15.178Z,79.60
2022-11-25T13:25:44.477Z,79.50
2022-11-25T13:34:10.346Z,80.60
2022-11-25T13:42:22.399Z,81.30
2022-11-25T13:50:54.904Z,81.70
2022-11-25T13:59:37.359Z,82.00
2022-11-25T14:07:55.609Z,81.40
2022-11-25T14:16:15.399Z,82.30
2022-11-25T14:24:44.791Z,82.20
2022-11-25T14:32:59.224Z,81.90
2022-11-25T14:41:13.246Z,81.80
2022-11-25T14:49:46.700Z,81.50
2022-11-25T14:57:53.510Z,81.20
2022-11-25T15:06:04.638Z,82.80
2022-11-25T15:14:24.545Z,83.10
2022-11-25T15:22:30.672Z,82.30
2022-11-25T15:30:38.661Z,82.80
2022-11-25T15:38:46.222Z,82.70
2022-11-25T15:47:02.814Z,82.40
2022-11-25T15:55:11.082Z,81.60
2022-11-25T16:03:25.082Z,82.20
2022-11-25T16:11:33.917Z,83.20
2022-11-25T16:19:46.982Z,83.80
2022-11-25T16:27:53.347Z,83.10
2022-11-25T16:36:06.558Z,85.50
2022-11-25T16:44:21.373Z,85.80
2022-11-25T16:52:29.247Z,85.40
2022-11-25T17:00:35.371Z,85.60
2022-11-25T17:08:43.830Z,88.00
2022-11-25T17:16:49.292Z,87.10
2022-11-25T17:24:58.763Z,86.20
2022-11-25T17:33:07.858Z,85.00
2022-11-25T17:41:18.655Z,84.60
2022-11-25T17:49:24.542Z,84.40
2022-11-25T17:57:32.538Z,84.30
2022-11-25T18:05:37.828Z,84.80
2022-11-25T18:13:47.609Z,85.10
2022-11-25T18:21:53.817Z,84.70
2022-11-25T18:30:02.769Z,85.00
2022-11-25T18:38:08.669Z,85.00
2022-11-25T18:46:17.563Z,85.40
2022-11-25T18:54:22.895Z,86.00
2022-11-25T19:02:31.144Z,85.90
2022-11-25T19:10:40.209Z,85.40
2022-11-25T19:18:50.100Z,85.10
2022-11-25T19:26:58.683Z,85.20
2022-11-25T19:35:10.115Z,85.40
